Nearby METAR Reports

 

KSJC - San Jose, California, USA
Distance from station: NE 14km
Updated: 19/05/2022 05:53
Few Clouds
Few Clouds
 Wind from NW
Wind: NW 17 km/h
Temperature: 20°C
Dew Point: 11°C
Humidity: 56%
Barometer: 1015.9 hPa
Clouds: Few Clouds
Visibility: 16 km
Cloud details: Few Clouds 3048 m
Few Clouds 4877 m
2022/05/19 03:53 KSJC 190353Z 32009KT 10SM FEW100 FEW160 20/11 A3000 RMK AO2 SLP156 T02000111
KNUQ - Moffett Nas/Mtn, California, USA
Distance from station: N 14km
Updated: 19/05/2022 06:10

 Wind from NNW
Wind: NNW 9 km/h
Temperature: 19°C
Dew Point: 14°C
Humidity: 73%
Barometer: 1015.9 hPa
Visibility: 16 km
2022/05/19 04:10 KNUQ 190410Z AUTO 34005KT 10SM 19/14 A3000 RMK AO2
 
KPAO - Palo Alto, California, USA
Distance from station: NNW 23km
Updated: 19/05/2022 05:47
Clear
Clear
 Wind from NNW
Wind: NNW 13 km/h
Temperature: 18°C
Dew Point: 13°C
Humidity: 73%
Barometer: 1015.9 hPa
Clouds: Clear
Visibility: 16 km
2022/05/19 03:47 KPAO 190347Z 33007KT 10SM SKC 18/13 A3000 RMK LAST
KRHV - San Jose/Reid, California, USA
Distance from station: ENE 19km
Updated: 19/05/2022 05:47
Clear
Clear
 Wind from NW
Wind: NW 11 km/h
Temperature: 22°C
Dew Point: 11°C
Humidity: 50%
Barometer: 1015.9 hPa
Clouds: Clear
Visibility: 16 km
2022/05/19 03:47 KRHV 190347Z 31006KT 10SM SKC 22/11 A3000
 
KOAK - Oakland, California, USA
Distance from station: NNW 50km
Updated: 19/05/2022 05:53
Few Clouds
Few Clouds
 Wind from SW
Wind: SW 7 km/h
Temperature: 18°C
Dew Point: 12°C
Humidity: 68%
Barometer: 1015.9 hPa
Clouds: Few Clouds
Visibility: 16 km
Cloud details: Few Clouds 305 m
Few Clouds 5486 m
2022/05/19 03:53 KOAK 190353Z 22004KT 10SM FEW010 FEW180 18/12 A3000 RMK AO2 SLP158 T01830122
KSQL - San Carlos Airpo, California, USA
Distance from station: NW 34km
Updated: 19/05/2022 06:15
Clear
Clear
 Wind from calm
Wind: Calm
Temperature: 20°C
Dew Point: 10°C
Humidity: 53%
Barometer: 1016.3 hPa
Clouds: Clear
Visibility: 16 km
2022/05/19 04:15 KSQL 190415Z AUTO 00000KT 10SM CLR 20/10 A3001 RMK AO2
 
KSFO - San Francisco, California, USA
Distance from station: NW 49km
Updated: 19/05/2022 05:56
Few Clouds
Few Clouds
 Wind from WNW
Wind: WNW 37 km/h, Gust: 44 km/h
Temperature: 17°C
Dew Point: 10°C
Humidity: 64%
Barometer: 1015.6 hPa
Clouds: Few Clouds
Visibility: 16 km
Cloud details: Few Clouds 6096 m
2022/05/19 03:56 KSFO 190356Z 29020G24KT 10SM FEW200 17/10 A2999 RMK AO2 PK WND 30032/0300 SLP156 T01720100
KE16 - San Martin, California, USA
Distance from station: ESE 43km
Updated: 19/05/2022 06:15
Clear
Clear
 Wind from NNW
Wind: NNW 13 km/h
Temperature: 24°C
Dew Point: 8°C
Humidity: 36%
Barometer: 1015.9 hPa
Clouds: Clear
Visibility: 16 km
2022/05/19 04:15 KE16 190415Z AUTO 33007KT 10SM CLR 24/08 A3000 RMK AO2 PWINO PNO
 
KWVI - Watsonville, California, USA
Distance from station: SSE 44km
Updated: 19/05/2022 05:53
Clear
Clear
 Wind from S
Wind: S 9 km/h
Temperature: 14°C
Dew Point: 10°C
Humidity: 77%
Barometer: 1015.9 hPa
Clouds: Clear
Visibility: 16 km
2022/05/19 03:53 KWVI 190353Z AUTO 19005KT 10SM CLR 14/10 A3000 RMK AO2 SLP158 T01440100
KHAF - Half Moon Bay, California, USA
Distance from station: WNW 50km
Updated: 19/05/2022 06:15
Mist, Clear
Mist, Clear
 Wind from N
Wind: N 24 km/h, Gust: 48 km/h
Temperature: 14°C
Dew Point: 12°C
Humidity: 88%
Barometer: 1016.9 hPa
Summary: Mist
Clouds: Clear
Visibility: 8 km
2022/05/19 04:15 KHAF 190415Z AUTO 36013G26KT 5SM BR CLR 14/12 A3003 RMK AO2
 
KHWD - Hayward, California, USA
Distance from station: N 44km
Updated: 19/05/2022 05:54
Clear
Clear
 Wind from calm
Wind: Calm
Temperature: 17°C
Dew Point: 12°C
Humidity: 73%
Barometer: 1015.9 hPa
Clouds: Clear
Visibility: 16 km
2022/05/19 03:54 KHWD 190354Z 00000KT 10SM CLR 17/12 A3000 RMK AO2 SLP167 T01720122
KLVK - Livermore, California, USA
Distance from station: NNE 51km
Updated: 19/05/2022 05:53
Clear
Clear
 Wind from WNW
Wind: WNW 13 km/h
Temperature: 23°C
Dew Point: 11°C
Humidity: 47%
Barometer: 1014.9 hPa
Clouds: Clear
Visibility: 16 km
2022/05/19 03:53 KLVK 190353Z 29007KT 10SM CLR 23/11 A2997 RMK AO2 SLP145 T02330106